Time;durP1;ratioP1;P1;durP2;ratioP2;P2;SDS_P1;SDS_P2;PMS_P1;PMS_P2;Temp;Humidity;BMP_temperature;BMP_pressure;BME280_temperature;BME280_humidity;BME280_pressure;Samples;Min_cycle;Max_cycle;Signal;HPM_P1;HPM_P2
2023/12/30 00:02:04;;;;;;;55.38;40.67;;;7.30;99.90;;;;;;5026464;29;20102;-73
2023/12/30 00:04:35;;;;;;;49.88;36.70;;;7.40;99.90;;;;;;5026849;29;20021;-72
2023/12/30 00:07:06;;;;;;;63.05;39.92;;;7.50;99.90;;;;;;5026453;29;20049;-73
2023/12/30 00:09:39;;;;;;;62.03;42.55;;;7.40;99.90;;;;;;5026882;29;20021;-72
2023/12/30 00:12:10;;;;;;;64.97;41.67;;;7.60;99.90;;;;;;5025960;29;20037;-73
2023/12/30 00:14:44;;;;;;;62.83;41.95;;;7.60;99.90;;;;;;5026088;29;20117;-73
2023/12/30 00:17:15;;;;;;;71.00;45.00;;;7.60;99.90;;;;;;5026555;29;20076;-73
2023/12/30 00:19:46;;;;;;;69.43;43.65;;;7.50;99.90;;;;;;5027347;29;20053;-73
2023/12/30 00:22:17;;;;;;;54.20;40.15;;;7.60;99.90;;;;;;5025640;29;20041;-72
2023/12/30 00:24:48;;;;;;;54.08;40.25;;;7.80;99.90;;;;;;5027153;29;20041;-73
2023/12/30 00:27:19;;;;;;;61.67;41.83;;;7.90;99.90;;;;;;5026127;29;20030;-73
2023/12/30 00:29:50;;;;;;;62.50;42.97;;;7.80;99.90;;;;;;5027345;29;20420;-73
2023/12/30 00:32:21;;;;;;;62.30;43.22;;;7.70;99.90;;;;;;5027119;29;20072;-73
2023/12/30 00:34:52;;;;;;;51.20;40.60;;;7.70;99.90;;;;;;5027016;29;20037;-73
2023/12/30 00:37:23;;;;;;;55.60;41.95;;;7.80;99.90;;;;;;5026980;29;20428;-73
2023/12/30 00:39:54;;;;;;;56.90;42.55;;;7.70;99.90;;;;;;5026897;29;20053;-73
2023/12/30 00:42:25;;;;;;;63.65;40.53;;;7.60;99.90;;;;;;5026857;29;20506;-73
2023/12/30 00:44:56;;;;;;;66.15;41.45;;;7.60;99.90;;;;;;5026908;29;20034;-72
2023/12/30 00:47:27;;;;;;;70.28;41.92;;;7.70;99.90;;;;;;5026943;29;20483;-72
2023/12/30 00:49:58;;;;;;;62.97;37.30;;;7.60;99.90;;;;;;5027088;29;20033;-73
2023/12/30 00:52:29;;;;;;;57.40;37.92;;;7.80;99.90;;;;;;5026808;29;20116;-72
2023/12/30 00:54:59;;;;;;;77.47;37.47;;;7.90;99.90;;;;;;5026133;29;20085;-73
2023/12/30 00:57:30;;;;;;;60.58;37.75;;;7.80;99.90;;;;;;5026343;29;20763;-72
2023/12/30 01:00:01;;;;;;;61.20;38.55;;;7.90;99.90;;;;;;5025821;29;20367;-73
2023/12/30 01:02:32;;;;;;;56.30;39.08;;;7.80;99.90;;;;;;5026078;29;20372;-73
2023/12/30 01:05:03;;;;;;;63.35;39.55;;;7.90;99.90;;;;;;5025773;29;20056;-73
2023/12/30 01:07:34;;;;;;;71.00;38.55;;;8.00;99.90;;;;;;5025844;29;20386;-73
2023/12/30 01:10:05;;;;;;;76.60;38.75;;;8.00;99.90;;;;;;5025587;29;20037;-72
2023/12/30 01:12:36;;;;;;;72.03;37.50;;;8.00;99.90;;;;;;5025519;29;20656;-72
2023/12/30 01:15:08;;;;;;;92.20;38.80;;;8.10;99.90;;;;;;5025604;29;20041;-73
2023/12/30 01:17:39;;;;;;;67.93;40.40;;;8.00;99.90;;;;;;5026647;29;20830;-73
2023/12/30 01:20:10;;;;;;;69.93;39.03;;;7.80;99.90;;;;;;5026578;29;20058;-72
2023/12/30 01:22:41;;;;;;;63.42;39.75;;;8.00;99.90;;;;;;5024974;29;20033;-73
2023/12/30 01:25:12;;;;;;;62.58;36.00;;;7.90;99.90;;;;;;5026450;29;20116;-72
2023/12/30 01:27:43;;;;;;;64.30;37.00;;;7.90;99.90;;;;;;5026780;29;20056;-73
2023/12/30 01:30:14;;;;;;;53.70;37.60;;;7.90;99.90;;;;;;5025083;29;20037;-72
2023/12/30 01:32:45;;;;;;;65.90;36.65;;;8.00;99.90;;;;;;5026116;29;20037;-73
2023/12/30 01:35:16;;;;;;;59.35;38.35;;;7.90;99.90;;;;;;5026449;29;20061;-73
2023/12/30 01:37:47;;;;;;;73.88;36.13;;;7.90;99.90;;;;;;5025051;29;20068;-73
2023/12/30 01:40:18;;;;;;;86.30;38.05;;;8.00;99.90;;;;;;5025906;29;20513;-72
2023/12/30 01:42:49;;;;;;;83.97;40.58;;;8.00;99.90;;;;;;5026249;29;20080;-73
2023/12/30 01:45:20;;;;;;;65.07;40.22;;;7.80;99.90;;;;;;5025186;29;20471;-73
2023/12/30 01:47:51;;;;;;;88.60;41.80;;;7.90;99.90;;;;;;5026028;29;20501;-73
2023/12/30 01:50:22;;;;;;;72.10;41.70;;;7.90;99.90;;;;;;5024346;29;20041;-73
2023/12/30 01:52:53;;;;;;;80.85;44.13;;;8.00;99.90;;;;;;5025209;29;20097;-73
2023/12/30 01:55:24;;;;;;;67.30;43.70;;;8.00;99.90;;;;;;5025173;29;20100;-73
2023/12/30 01:57:55;;;;;;;71.45;42.53;;;8.10;99.90;;;;;;5023909;29;20051;-72
2023/12/30 02:00:28;;;;;;;66.38;43.35;;;8.20;99.90;;;;;;5025132;29;20021;-73
2023/12/30 02:03:00;;;;;;;63.08;41.95;;;8.10;99.90;;;;;;5025125;29;20090;-72
2023/12/30 02:05:31;;;;;;;95.18;44.05;;;8.30;99.90;;;;;;5024854;29;20041;-73
2023/12/30 02:08:02;;;;;;;70.95;43.42;;;8.10;99.90;;;;;;5025355;29;20040;-72
2023/12/30 02:10:33;;;;;;;81.20;42.83;;;8.10;99.90;;;;;;5026080;29;20033;-73
2023/12/30 02:13:04;;;;;;;115.15;52.03;;;8.10;99.90;;;;;;5499762;23;20057;-72
2023/12/30 02:15:35;;;;;;;109.20;62.67;;;8.00;99.90;;;;;;5042316;29;20053;-72
2023/12/30 02:18:06;;;;;;;100.13;51.55;;;8.10;99.90;;;;;;5040066;29;20068;-73
2023/12/30 02:20:38;;;;;;;74.82;41.88;;;8.00;99.90;;;;;;5045031;29;20029;-73
2023/12/30 02:23:09;;;;;;;57.55;37.50;;;8.10;99.90;;;;;;5045290;29;20108;-73
2023/12/30 02:25:40;;;;;;;57.35;39.95;;;7.90;99.90;;;;;;5045279;29;20437;-73
2023/12/30 02:28:11;;;;;;;67.47;38.25;;;8.00;99.90;;;;;;5048878;29;20092;-73
2023/12/30 02:30:42;;;;;;;53.65;37.55;;;7.90;99.90;;;;;;5048756;29;20021;-73
2023/12/30 02:33:12;;;;;;;53.42;37.35;;;8.00;99.90;;;;;;5048761;29;20049;-72
2023/12/30 02:35:43;;;;;;;49.15;35.83;;;8.10;99.90;;;;;;5047455;29;20060;-73
2023/12/30 02:38:14;;;;;;;55.97;39.13;;;8.20;99.90;;;;;;5048957;29;20125;-73
2023/12/30 02:40:45;;;;;;;67.35;42.25;;;8.10;99.90;;;;;;5047494;29;20029;-72
2023/12/30 02:43:16;;;;;;;59.60;41.17;;;8.00;99.90;;;;;;5043105;29;20045;-73
2023/12/30 02:45:47;;;;;;;59.45;40.83;;;8.00;99.90;;;;;;5028478;29;20025;-73
2023/12/30 02:48:18;;;;;;;70.80;48.08;;;8.10;99.90;;;;;;5028631;29;20036;-73
2023/12/30 02:50:49;;;;;;;63.30;45.85;;;7.90;99.90;;;;;;5027881;29;20037;-73
2023/12/30 02:53:20;;;;;;;71.15;48.75;;;7.90;99.90;;;;;;5028306;29;20038;-73
2023/12/30 02:55:51;;;;;;;62.38;45.60;;;8.00;99.90;;;;;;5026910;29;20030;-73
2023/12/30 02:58:21;;;;;;;57.15;42.08;;;8.00;99.90;;;;;;5027833;29;20783;-73
2023/12/30 03:00:52;;;;;;;56.10;40.70;;;7.90;99.90;;;;;;5027424;29;20052;-73
2023/12/30 03:03:23;;;;;;;49.95;37.03;;;7.70;99.90;;;;;;5008427;29;20038;-73
2023/12/30 03:05:54;;;;;;;43.58;33.90;;;7.90;99.90;;;;;;5015461;29;20037;-72
2023/12/30 03:08:25;;;;;;;40.85;31.00;;;7.80;99.90;;;;;;5028601;29;20037;-73
2023/12/30 03:10:56;;;;;;;39.88;32.50;;;8.00;99.90;;;;;;5027471;29;20117;-73
2023/12/30 03:13:27;;;;;;;48.75;37.10;;;7.80;99.90;;;;;;5028396;29;20060;-73
2023/12/30 03:15:58;;;;;;;43.53;33.80;;;7.80;99.90;;;;;;5028750;29;20034;-73
2023/12/30 03:18:30;;;;;;;42.28;33.60;;;7.80;99.90;;;;;;5028956;29;20030;-73
2023/12/30 03:21:01;;;;;;;39.83;30.88;;;7.70;99.90;;;;;;5028737;29;20025;-72
2023/12/30 03:23:32;;;;;;;36.22;29.15;;;7.60;99.90;;;;;;5028732;29;20049;-72
2023/12/30 03:26:04;;;;;;;32.20;28.23;;;7.70;99.90;;;;;;5028010;29;20072;-73
2023/12/30 03:28:36;;;;;;;32.88;28.15;;;7.50;99.90;;;;;;5028823;29;20045;-72
2023/12/30 03:31:07;;;;;;;33.00;27.65;;;7.50;99.90;;;;;;5027355;29;20040;-73
2023/12/30 03:33:38;;;;;;;34.97;29.08;;;7.50;99.90;;;;;;5028477;29;20037;-73
2023/12/30 03:36:08;;;;;;;34.78;29.42;;;7.50;99.90;;;;;;5028445;29;20056;-72
2023/12/30 03:38:39;;;;;;;36.53;30.80;;;7.60;99.90;;;;;;5028385;29;20390;-73
2023/12/30 03:41:10;;;;;;;35.92;28.83;;;7.50;99.90;;;;;;5027745;29;20030;-72
2023/12/30 03:43:41;;;;;;;36.33;30.17;;;7.40;99.90;;;;;;5027675;29;20046;-72
2023/12/30 03:46:12;;;;;;;38.63;30.40;;;7.50;99.90;;;;;;5026204;29;20040;-73
2023/12/30 03:48:43;;;;;;;47.55;30.27;;;7.40;99.90;;;;;;5027644;29;20042;-72
2023/12/30 03:51:14;;;;;;;36.53;29.42;;;7.30;99.90;;;;;;5027180;29;20449;-73
2023/12/30 03:53:44;;;;;;;43.55;30.80;;;7.40;99.90;;;;;;5027027;29;20046;-72
2023/12/30 03:56:15;;;;;;;53.60;31.73;;;7.50;99.90;;;;;;5026601;29;20030;-72
2023/12/30 03:58:46;;;;;;;42.30;32.70;;;7.10;99.90;;;;;;5027139;29;20165;-72
2023/12/30 04:01:17;;;;;;;44.85;33.17;;;7.20;99.90;;;;;;5027592;29;20505;-72
2023/12/30 04:03:48;;;;;;;39.75;30.45;;;7.30;99.90;;;;;;5027722;29;20041;-72
2023/12/30 04:06:19;;;;;;;38.17;31.25;;;7.30;99.90;;;;;;5027677;29;20116;-73
2023/12/30 04:08:50;;;;;;;40.25;30.50;;;7.50;99.90;;;;;;5027521;29;20029;-72
2023/12/30 04:11:21;;;;;;;35.05;29.85;;;7.40;99.90;;;;;;5026397;29;20465;-73
2023/12/30 04:13:52;;;;;;;38.70;31.17;;;7.60;99.90;;;;;;5026957;29;20085;-73
2023/12/30 04:16:23;;;;;;;38.50;30.13;;;7.50;99.90;;;;;;5027538;29;20038;-72
2023/12/30 04:18:54;;;;;;;39.80;31.05;;;7.50;99.90;;;;;;5027751;29;20033;-73
2023/12/30 04:21:24;;;;;;;37.40;30.60;;;7.60;99.90;;;;;;5027560;29;20082;-72
2023/12/30 04:23:55;;;;;;;37.13;29.25;;;7.70;99.90;;;;;;5027625;29;20034;-73
2023/12/30 04:26:26;;;;;;;36.50;30.52;;;7.60;99.90;;;;;;5027402;29;20040;-72
2023/12/30 04:28:57;;;;;;;39.38;30.70;;;7.70;99.90;;;;;;5027282;29;20108;-73
2023/12/30 04:31:28;;;;;;;34.20;27.88;;;7.50;99.90;;;;;;5027255;29;20041;-73
2023/12/30 04:33:59;;;;;;;35.22;28.13;;;7.60;99.90;;;;;;5027302;29;20042;-73
2023/12/30 04:36:30;;;;;;;34.72;28.38;;;7.50;99.90;;;;;;5026487;29;20653;-73
2023/12/30 04:39:01;;;;;;;34.83;27.30;;;7.60;99.90;;;;;;5025580;29;20038;-72
2023/12/30 04:41:32;;;;;;;36.33;27.77;;;7.60;99.90;;;;;;5026139;29;20029;-73
2023/12/30 04:44:02;;;;;;;33.83;27.52;;;7.60;99.90;;;;;;5025785;29;20105;-73
2023/12/30 04:46:33;;;;;;;32.78;27.77;;;7.70;99.90;;;;;;5024968;29;20042;-72
2023/12/30 04:49:04;;;;;;;30.08;26.50;;;7.90;99.90;;;;;;5025785;29;20037;-72
2023/12/30 04:51:36;;;;;;;31.90;26.33;;;7.90;99.90;;;;;;5025775;29;20061;-73
2023/12/30 04:54:07;;;;;;;30.80;26.23;;;7.80;99.90;;;;;;5026038;29;20128;-73
2023/12/30 04:56:38;;;;;;;34.15;28.75;;;7.80;99.90;;;;;;5027175;29;20122;-72
2023/12/30 04:59:09;;;;;;;37.00;29.10;;;8.00;99.90;;;;;;5027148;29;20029;-73
2023/12/30 05:01:40;;;;;;;32.72;28.10;;;8.20;99.90;;;;;;5026856;29;20026;-72
2023/12/30 05:04:11;;;;;;;33.58;28.73;;;8.10;99.90;;;;;;5025550;29;20423;-72
2023/12/30 05:06:42;;;;;;;34.33;29.15;;;8.00;99.90;;;;;;5026494;29;20072;-73
2023/12/30 05:09:14;;;;;;;34.03;27.55;;;8.00;99.90;;;;;;5021697;29;20038;-72
2023/12/30 05:11:45;;;;;;;32.35;27.55;;;8.00;99.90;;;;;;5007619;29;20034;-73
2023/12/30 05:14:18;;;;;;;32.70;27.73;;;8.00;99.90;;;;;;5020907;29;20132;-73
2023/12/30 05:16:49;;;;;;;55.97;37.92;;;8.10;99.90;;;;;;5035941;29;20083;-72
2023/12/30 05:19:20;;;;;;;69.40;43.42;;;8.20;99.90;;;;;;5032374;29;20029;-73
2023/12/30 05:21:51;;;;;;;199.63;105.70;;;8.10;99.90;;;;;;5036241;29;20386;-73
2023/12/30 05:24:22;;;;;;;138.98;81.90;;;8.00;99.90;;;;;;5019994;29;20447;-73
2023/12/30 05:26:53;;;;;;;145.90;80.07;;;8.20;99.90;;;;;;5020535;29;20069;-73
2023/12/30 05:29:24;;;;;;;106.68;66.25;;;8.10;99.90;;;;;;5014513;29;20029;-72
2023/12/30 05:31:55;;;;;;;110.45;65.10;;;8.00;99.90;;;;;;5011619;29;20054;-72
2023/12/30 05:34:26;;;;;;;110.70;69.90;;;8.10;99.90;;;;;;5016309;29;20044;-72
2023/12/30 05:36:56;;;;;;;113.68;69.50;;;8.10;99.90;;;;;;5014817;29;20132;-72
2023/12/30 05:39:27;;;;;;;111.60;81.10;;;8.10;99.90;;;;;;5015463;29;20049;-72
2023/12/30 05:41:58;;;;;;;107.05;77.35;;;8.10;99.90;;;;;;5013856;29;20036;-72
2023/12/30 05:44:29;;;;;;;106.35;65.50;;;8.20;99.90;;;;;;5017971;29;20113;-73
2023/12/30 05:47:00;;;;;;;93.35;61.53;;;8.20;99.90;;;;;;5008847;29;20526;-72
2023/12/30 05:49:31;;;;;;;93.43;63.00;;;8.20;99.90;;;;;;5006077;29;20034;-73
2023/12/30 05:52:02;;;;;;;98.53;70.30;;;8.20;99.90;;;;;;5006406;29;20128;-72
2023/12/30 05:54:33;;;;;;;94.30;65.63;;;8.20;99.90;;;;;;5016785;29;20048;-72
2023/12/30 05:57:04;;;;;;;87.85;66.75;;;8.30;99.90;;;;;;5016759;29;20018;-72
2023/12/30 05:59:35;;;;;;;76.80;59.50;;;8.40;99.90;;;;;;5019858;29;20037;-72
2023/12/30 06:02:06;;;;;;;84.05;58.90;;;8.40;99.90;;;;;;5029773;29;20026;-72
2023/12/30 06:04:43;;;;;;;79.68;60.03;;;8.50;99.90;;;;;;5029906;29;20030;-74
2023/12/30 06:07:14;;;;;;;81.78;60.88;;;8.50;99.90;;;;;;5029964;29;20033;-73
2023/12/30 06:09:45;;;;;;;220.55;66.43;;;8.50;99.90;;;;;;5030041;29;20060;-72
2023/12/30 06:12:17;;;;;;;71.60;49.17;;;8.50;99.90;;;;;;5027831;29;20105;-73
2023/12/30 06:14:49;;;;;;;66.85;49.53;;;8.60;99.90;;;;;;5029069;29;20029;-72
2023/12/30 06:17:20;;;;;;;75.25;58.97;;;8.60;99.90;;;;;;5029058;29;20025;-72
2023/12/30 06:19:51;;;;;;;73.88;58.13;;;8.70;99.90;;;;;;5029452;29;20052;-73
2023/12/30 06:22:21;;;;;;;64.75;53.72;;;8.70;99.90;;;;;;5028363;29;20120;-73
2023/12/30 06:24:52;;;;;;;60.28;47.97;;;8.70;99.90;;;;;;5029700;29;20066;-72
2023/12/30 06:27:23;;;;;;;55.03;43.67;;;8.70;99.90;;;;;;5029498;29;20363;-72
2023/12/30 06:29:54;;;;;;;58.72;45.92;;;8.80;99.90;;;;;;5028767;29;20030;-73
2023/12/30 06:32:25;;;;;;;62.08;48.17;;;8.90;99.90;;;;;;5027771;29;20105;-72
2023/12/30 06:34:56;;;;;;;71.55;52.88;;;9.00;99.90;;;;;;5027115;29;20025;-72
2023/12/30 06:37:27;;;;;;;65.40;53.33;;;8.90;99.90;;;;;;5028415;29;20034;-72
2023/12/30 06:39:57;;;;;;;65.68;56.42;;;8.90;99.90;;;;;;5028325;29;20048;-72
2023/12/30 06:42:28;;;;;;;67.07;56.08;;;9.00;99.90;;;;;;5027908;29;20513;-73
2023/12/30 06:44:59;;;;;;;67.97;54.50;;;9.10;99.90;;;;;;5028172;29;20412;-73
2023/12/30 06:47:30;;;;;;;65.88;51.95;;;9.00;99.90;;;;;;5028351;29;20596;-73
2023/12/30 06:50:01;;;;;;;54.83;45.78;;;9.00;99.90;;;;;;5029070;29;20435;-73
2023/12/30 06:52:32;;;;;;;57.40;45.60;;;9.10;99.90;;;;;;5029049;29;20129;-73
2023/12/30 06:55:05;;;;;;;57.30;47.30;;;9.10;99.90;;;;;;5029001;29;20086;-72
2023/12/30 06:57:36;;;;;;;55.78;45.67;;;9.00;99.90;;;;;;5029064;29;20037;-73
2023/12/30 07:00:08;;;;;;;55.22;44.50;;;9.10;99.90;;;;;;5028998;29;20022;-72
2023/12/30 07:02:41;;;;;;;64.78;48.63;;;9.20;99.90;;;;;;5028869;29;20129;-73
2023/12/30 07:05:12;;;;;;;67.45;51.92;;;9.20;99.90;;;;;;5028718;29;20120;-73
2023/12/30 07:07:43;;;;;;;68.05;52.22;;;9.20;99.90;;;;;;5028953;29;20455;-72
2023/12/30 07:10:14;;;;;;;73.82;56.33;;;9.40;99.90;;;;;;5028822;29;20040;-72
2023/12/30 07:12:44;;;;;;;112.45;88.35;;;9.30;99.90;;;;;;5495144;23;20072;-72
2023/12/30 07:15:15;;;;;;;89.60;69.00;;;9.40;99.90;;;;;;5062093;29;20033;-72
2023/12/30 07:17:48;;;;;;;69.45;52.70;;;9.40;99.90;;;;;;5047773;29;20116;-71
2023/12/30 07:20:19;;;;;;;64.22;48.83;;;9.50;99.90;;;;;;5047070;29;20025;-72
2023/12/30 07:22:50;;;;;;;58.55;46.90;;;9.60;99.90;;;;;;5047807;29;20395;-71
2023/12/30 07:25:20;;;;;;;80.85;65.72;;;9.70;99.90;;;;;;5047034;29;20069;-71
2023/12/30 07:27:51;;;;;;;98.35;82.38;;;9.70;99.90;;;;;;5047263;29;20113;-72
2023/12/30 07:30:22;;;;;;;196.57;140.73;;;9.80;99.90;;;;;;5046383;29;20856;-72
2023/12/30 07:32:53;;;;;;;125.65;100.63;;;9.80;99.90;;;;;;5044550;29;20033;-71
2023/12/30 07:35:24;;;;;;;134.93;106.57;;;9.90;99.90;;;;;;5037188;29;20032;-72
2023/12/30 07:37:55;;;;;;;123.35;95.57;;;9.90;99.90;;;;;;5032575;29;20053;-72
2023/12/30 07:40:26;;;;;;;101.22;87.60;;;10.10;99.90;;;;;;5028440;29;20115;-72
2023/12/30 07:42:57;;;;;;;104.68;92.30;;;10.20;99.90;;;;;;5040704;29;20530;-73
2023/12/30 07:45:29;;;;;;;104.43;89.25;;;10.30;99.90;;;;;;5042643;29;20036;-72
2023/12/30 07:47:59;;;;;;;104.50;90.22;;;10.40;99.90;;;;;;5044715;29;20033;-73
2023/12/30 07:50:30;;;;;;;91.47;80.20;;;10.50;99.90;;;;;;5045172;29;20029;-72
2023/12/30 07:53:02;;;;;;;96.07;80.78;;;10.50;99.90;;;;;;5039171;29;20040;-72
2023/12/30 07:55:33;;;;;;;78.78;65.10;;;10.60;99.90;;;;;;5060827;29;20036;-72
2023/12/30 07:58:04;;;;;;;98.10;78.55;;;10.70;99.90;;;;;;5046973;29;20025;-72
2023/12/30 08:00:35;;;;;;;92.35;76.03;;;10.70;99.90;;;;;;5046813;29;20044;-73
2023/12/30 08:03:06;;;;;;;94.78;75.75;;;10.70;99.90;;;;;;5046789;29;20029;-72
2023/12/30 08:05:37;;;;;;;90.25;75.82;;;10.70;99.90;;;;;;5046193;29;20130;-73
2023/12/30 08:08:14;;;;;;;87.20;69.20;;;10.80;99.90;;;;;;5045117;29;20151;-73
2023/12/30 08:10:45;;;;;;;84.60;69.50;;;10.90;99.90;;;;;;5037516;29;20040;-73
2023/12/30 08:13:16;;;;;;;88.00;71.28;;;10.90;99.90;;;;;;5037502;29;20049;-73
2023/12/30 08:15:47;;;;;;;100.50;85.95;;;11.00;99.90;;;;;;5035877;29;20025;-73
2023/12/30 08:18:18;;;;;;;101.95;84.53;;;11.00;99.90;;;;;;5043166;29;20109;-72
2023/12/30 08:20:51;;;;;;;97.63;81.90;;;11.10;99.90;;;;;;5045376;29;20443;-73
2023/12/30 08:23:22;;;;;;;94.93;78.53;;;11.10;99.90;;;;;;5033016;29;20029;-73
2023/12/30 08:25:52;;;;;;;96.43;81.22;;;11.20;99.90;;;;;;5033001;29;20021;-72
2023/12/30 08:28:23;;;;;;;97.50;82.63;;;11.40;99.90;;;;;;5038766;29;20036;-74
2023/12/30 08:30:56;;;;;;;102.10;85.65;;;;;;;;;;5043084;29;20021;-72
2023/12/30 08:33:27;;;;;;;87.95;72.38;;;13.10;99.90;;;;;;5038476;29;20044;-73
2023/12/30 08:35:58;;;;;;;81.05;65.22;;;13.10;99.90;;;;;;5042075;29;20781;-73
2023/12/30 08:38:31;;;;;;;93.38;71.75;;;11.80;99.90;;;;;;5044769;29;20104;-73
2023/12/30 08:41:02;;;;;;;96.38;74.90;;;11.50;99.90;;;;;;5039956;29;20029;-73
2023/12/30 08:43:33;;;;;;;97.93;79.95;;;12.50;99.90;;;;;;5036790;29;20025;-72
2023/12/30 08:46:04;;;;;;;86.40;67.85;;;9.40;99.90;;;;;;5038329;29;20063;-73
2023/12/30 08:48:35;;;;;;;81.82;64.35;;;12.10;99.90;;;;;;5044532;29;20064;-73
2023/12/30 08:51:06;;;;;;;114.18;87.05;;;12.10;99.90;;;;;;5044321;29;20032;-73
2023/12/30 08:53:37;;;;;;;93.95;75.55;;;12.30;99.90;;;;;;5044677;29;20053;-72
2023/12/30 08:56:08;;;;;;;87.43;69.00;;;12.30;99.90;;;;;;5042418;29;20036;-73
2023/12/30 08:58:38;;;;;;;85.30;68.80;;;12.50;99.90;;;;;;5042783;29;20040;-72
2023/12/30 09:01:09;;;;;;;76.00;59.55;;;12.60;99.90;;;;;;5052160;29;20075;-73
2023/12/30 09:03:40;;;;;;;65.93;53.70;;;12.70;99.90;;;;;;5064947;29;20051;-72
2023/12/30 09:06:11;;;;;;;90.43;63.97;;;12.80;99.90;;;;;;5052193;29;20466;-71
2023/12/30 09:08:42;;;;;;;74.95;59.55;;;12.70;99.90;;;;;;5043466;29;20094;-72
2023/12/30 09:11:21;;;;;;;85.18;68.82;;;12.90;99.90;;;;;;5042758;29;20029;-72
2023/12/30 09:13:52;;;;;;;83.10;69.50;;;12.70;99.90;;;;;;5033093;29;20079;-72
2023/12/30 09:16:22;;;;;;;82.22;66.88;;;13.20;99.90;;;;;;5041048;29;20041;-72
2023/12/30 09:18:53;;;;;;;78.32;62.67;;;13.50;99.90;;;;;;5044865;29;20096;-72
2023/12/30 09:21:24;;;;;;;60.92;50.42;;;13.30;99.90;;;;;;5044655;29;20029;-72
2023/12/30 09:23:56;;;;;;;61.83;49.70;;;13.30;99.90;;;;;;5043852;29;20036;-72
2023/12/30 09:26:27;;;;;;;59.17;48.85;;;13.20;99.90;;;;;;5044326;29;20514;-72
2023/12/30 09:28:58;;;;;;;66.43;51.70;;;13.30;99.90;;;;;;5043573;29;20064;-72
2023/12/30 09:31:29;;;;;;;258.50;143.50;;;13.30;99.90;;;;;;5044202;29;20033;-73
2023/12/30 09:34:00;;;;;;;150.52;95.63;;;13.60;99.90;;;;;;5044019;29;20576;-72
2023/12/30 09:36:31;;;;;;;76.70;56.05;;;13.90;99.90;;;;;;5044616;29;20036;-72
2023/12/30 09:39:02;;;;;;;65.38;48.20;;;12.50;99.90;;;;;;5045079;29;20037;-72
2023/12/30 09:41:35;;;;;;;63.00;48.00;;;13.50;99.90;;;;;;5045465;29;20088;-72
2023/12/30 09:44:07;;;;;;;58.40;44.45;;;13.60;99.90;;;;;;5045648;29;20060;-73
2023/12/30 09:46:39;;;;;;;59.55;43.83;;;13.60;99.90;;;;;;5045483;29;20494;-72
2023/12/30 09:49:11;;;;;;;58.00;45.58;;;13.70;99.90;;;;;;5045259;29;20036;-72
2023/12/30 09:51:42;;;;;;;62.47;43.95;;;13.80;99.90;;;;;;5045053;29;20079;-72
2023/12/30 09:54:13;;;;;;;57.83;44.95;;;13.80;99.90;;;;;;5045160;29;20065;-73
2023/12/30 09:56:45;;;;;;;60.90;45.08;;;13.90;99.90;;;;;;5044957;29;20478;-73
2023/12/30 09:59:15;;;;;;;42.30;35.40;;;14.00;99.90;;;;;;5045205;29;20049;-72
2023/12/30 10:01:46;;;;;;;53.17;41.13;;;13.90;99.90;;;;;;5045106;29;20025;-72
2023/12/30 10:04:17;;;;;;;47.70;37.60;;;14.10;99.90;;;;;;5043619;29;20048;-73
2023/12/30 10:06:51;;;;;;;44.95;35.75;;;14.10;99.90;;;;;;5044819;29;20021;-72
2023/12/30 10:09:23;;;;;;;39.90;33.85;;;14.20;99.90;;;;;;5044798;29;20048;-72
2023/12/30 10:11:54;;;;;;;46.28;35.38;;;14.20;99.90;;;;;;5044553;29;20037;-72
2023/12/30 10:14:25;;;;;;;45.70;34.85;;;14.30;99.90;;;;;;5043835;29;20207;-72
2023/12/30 10:16:56;;;;;;;42.95;33.88;;;14.60;99.90;;;;;;5042943;29;20029;-71
2023/12/30 10:19:27;;;;;;;38.55;33.75;;;14.40;99.90;;;;;;5042112;29;21029;-72
2023/12/30 10:21:58;;;;;;;42.78;33.88;;;14.40;99.90;;;;;;5044111;29;20033;-72
2023/12/30 10:24:30;;;;;;;40.75;32.53;;;14.50;99.90;;;;;;5044107;29;20029;-72
2023/12/30 10:27:04;;;;;;;47.97;40.80;;;14.50;99.90;;;;;;5044118;29;20032;-72
2023/12/30 10:29:35;;;;;;;45.60;38.08;;;14.50;99.90;;;;;;5043891;29;20561;-73
2023/12/30 10:32:08;;;;;;;39.00;32.92;;;14.70;99.90;;;;;;5044715;29;20037;-72
2023/12/30 10:34:40;;;;;;;39.47;32.10;;;14.80;99.90;;;;;;5044568;29;20052;-73
2023/12/30 10:37:11;;;;;;;36.08;30.30;;;15.10;99.90;;;;;;5043922;29;20377;-72
2023/12/30 10:39:47;;;;;;;33.10;28.33;;;14.90;99.90;;;;;;5043812;29;20033;-73
2023/12/30 10:42:17;;;;;;;35.13;27.63;;;15.00;99.90;;;;;;5043739;29;20039;-72
2023/12/30 10:44:48;;;;;;;39.90;31.48;;;14.80;99.90;;;;;;5043930;29;20668;-72
2023/12/30 10:47:22;;;;;;;31.80;27.90;;;15.10;99.90;;;;;;5046990;29;20032;-73
2023/12/30 10:49:58;;;;;;;34.83;28.13;;;15.00;99.90;;;;;;5046191;29;20121;-72
2023/12/30 10:52:30;;;;;;;34.03;28.42;;;15.40;99.90;;;;;;5048720;29;20040;-72
2023/12/30 10:55:10;;;;;;;33.75;28.55;;;15.60;99.90;;;;;;5048473;29;20514;-72
2023/12/30 10:58:00;;;;;;;41.72;31.20;;;15.80;99.90;;;;;;5048438;29;20037;-72
2023/12/30 11:00:35;;;;;;;36.70;29.92;;;16.20;99.90;;;;;;5047794;29;20036;-72
2023/12/30 11:03:07;;;;;;;32.08;28.63;;;16.10;99.90;;;;;;5047692;29;20029;-72
2023/12/30 11:05:53;;;;;;;34.55;31.05;;;16.00;99.90;;;;;;5047855;29;20643;-73
2023/12/30 11:08:23;;;;;;;41.25;34.67;;;16.00;99.90;;;;;;5047925;29;20033;-72
2023/12/30 11:10:57;;;;;;;35.05;30.20;;;16.20;99.90;;;;;;5047604;29;20521;-72
2023/12/30 11:13:37;;;;;;;56.80;43.67;;;16.20;99.90;;;;;;5047149;29;20063;-72
2023/12/30 11:16:15;;;;;;;33.85;28.85;;;15.80;99.90;;;;;;5047447;29;20037;-72
2023/12/30 11:18:57;;;;;;;40.33;32.30;;;15.80;99.90;;;;;;5047383;29;20455;-72
2023/12/30 11:21:43;;;;;;;33.63;27.20;;;15.60;99.90;;;;;;5047672;29;20430;-72
2023/12/30 11:24:17;;;;;;;28.92;25.73;;;15.90;99.90;;;;;;5047515;29;20029;-72
2023/12/30 11:26:51;;;;;;;36.40;27.58;;;16.00;99.90;;;;;;5045894;29;20037;-72
2023/12/30 11:29:29;;;;;;;30.15;25.92;;;15.90;99.90;;;;;;5045981;29;20036;-72
2023/12/30 11:32:00;;;;;;;44.47;36.35;;;15.80;99.90;;;;;;5046460;29;20025;-73
2023/12/30 11:34:31;;;;;;;33.55;25.85;;;15.70;99.90;;;;;;5045076;29;20056;-72
2023/12/30 11:37:06;;;;;;;34.95;27.85;;;15.60;99.90;;;;;;5046366;29;20168;-73
2023/12/30 11:39:40;;;;;;;32.53;26.02;;;15.60;99.90;;;;;;5045260;29;20033;-72
2023/12/30 11:42:11;;;;;;;30.83;24.65;;;15.70;99.90;;;;;;5045474;29;20076;-73
2023/12/30 11:44:43;;;;;;;26.40;23.60;;;15.70;99.90;;;;;;5046140;29;20116;-72
2023/12/30 11:47:21;;;;;;;27.98;24.30;;;15.70;99.90;;;;;;5046107;29;20033;-73
2023/12/30 11:50:03;;;;;;;35.03;24.67;;;15.70;99.90;;;;;;5047426;29;20056;-72
2023/12/30 11:52:42;;;;;;;46.03;30.52;;;15.70;99.90;;;;;;5041546;29;20545;-72
2023/12/30 11:55:13;;;;;;;28.55;24.13;;;15.50;99.90;;;;;;5042253;29;20494;-73
2023/12/30 11:57:47;;;;;;;29.05;24.25;;;15.60;99.90;;;;;;5027942;29;20044;-73
2023/12/30 12:00:20;;;;;;;38.88;29.45;;;15.60;99.90;;;;;;5027898;29;20038;-73
2023/12/30 12:02:52;;;;;;;40.50;33.78;;;15.60;99.90;;;;;;5042197;29;20044;-73
2023/12/30 12:05:23;;;;;;;33.92;29.55;;;15.60;99.90;;;;;;5042345;29;20088;-72
2023/12/30 12:07:53;;;;;;;31.15;27.65;;;15.60;99.90;;;;;;5027732;29;20071;-72
2023/12/30 12:10:24;;;;;;;33.92;26.02;;;15.60;99.90;;;;;;5027602;29;20101;-71
2023/12/30 12:12:56;;;;;;;34.53;28.70;;;15.60;99.90;;;;;;5027070;29;20140;-72
2023/12/30 12:15:27;;;;;;;32.13;25.90;;;15.60;99.90;;;;;;5035130;29;20017;-73
2023/12/30 12:18:07;;;;;;;28.85;25.80;;;15.80;99.90;;;;;;5046357;29;20041;-74
2023/12/30 12:20:40;;;;;;;29.45;25.98;;;15.60;99.90;;;;;;5044001;29;20017;-72
2023/12/30 12:23:16;;;;;;;28.95;25.25;;;15.50;99.90;;;;;;5045662;29;20421;-73
2023/12/30 12:25:49;;;;;;;28.85;24.80;;;15.50;99.90;;;;;;5045629;29;20033;-72
2023/12/30 12:28:23;;;;;;;35.03;26.67;;;15.60;99.90;;;;;;5045177;29;20033;-72
2023/12/30 12:30:56;;;;;;;32.65;25.15;;;15.70;99.90;;;;;;5044009;29;20558;-74
2023/12/30 12:33:27;;;;;;;34.72;29.42;;;16.30;99.90;;;;;;5045210;29;20041;-74
2023/12/30 12:35:58;;;;;;;26.17;23.25;;;16.50;99.90;;;;;;5037408;29;20025;-72
2023/12/30 12:38:29;;;;;;;28.27;25.15;;;16.20;99.90;;;;;;5045273;29;20513;-71
2023/12/30 12:41:00;;;;;;;29.55;24.35;;;16.10;99.90;;;;;;5045817;29;20025;-73
2023/12/30 12:43:31;;;;;;;35.28;27.92;;;16.00;99.90;;;;;;5046005;29;20390;-73
2023/12/30 12:46:03;;;;;;;30.88;26.25;;;15.90;99.90;;;;;;5045571;29;20062;-73
2023/12/30 12:48:34;;;;;;;37.95;28.98;;;19.00;99.90;;;;;;5045918;29;20059;-72
2023/12/30 12:51:06;;;;;;;35.13;31.65;;;18.10;99.90;;;;;;5045939;29;20025;-71
2023/12/30 12:53:36;;;;;;;28.58;25.50;;;17.20;99.90;;;;;;5044451;29;20116;-71
2023/12/30 12:56:08;;;;;;;34.53;29.30;;;16.40;99.90;;;;;;5046031;29;20021;-71